Flight Number: AVA2002 Duration: 0:30
Departure: Denver Intl Airport (KDEN) at 16:15 Distance: 85.6571 Nm
Arrival: Lake County Airport (KLXV) at 16:45 Equipment: B1900D

Weather Information
DENVER INTERNATIONAL AIRPORT, CO, United States (KDEN) 39-52N 104-40W 1640M Mar 01, 2021 - 11:53 PM EST / 2021.03.02 0453 UTC
Wind: from the SSW (200 degrees) at 14 MPH (12 KT):0
Visibility: 10 mile(s):0
Sky conditions: clear Temperature: 35.1 F (1.7 C) Dew Point: 15.1 F (-9.4 C) Relative Humidity: 43% Pressure (altimeter): 30.16 in. Hg (1021 hPa)
ob: KDEN 020453Z 20012KT 10SM CLR 02/M09 A3016 RMK AO2 SLP213 T00171094 cycle: 5
Sunrise: 13:31 Sunset: 00:49 (UTC)

LEADVILLE LAKE CO, CO, United States (KLXV) 39-14N 106-19W 3028M Mar 01, 2021 - 11:53 PM EST / 2021.03.02 0453 UTC
Wind: from the NE (040 degrees) at 7 MPH (6 KT):0
Visibility: 10 mile(s):0
Sky conditions: clear Temperature: 14.0 F (-10.0 C)
Windchill: 3 F (-16 C):1 Dew Point: 3.9 F (-15.6 C) Relative Humidity: 63% Pressure (altimeter): 30.28 in. Hg (1025 hPa)
ob: KLXV 020453Z AUTO 04006KT 10SM CLR M10/M16 A3028 RMK AO2 SLP256 T11001156 cycle: 5
Sunrise: 13:37 Sunset: 00:56 (UTC)

TAF: 404 Not Found

Not Found

The requested URL /data/forecasts/taf/stations/KLXV.TXT was not found on this server.



Previous Pireps for this route
Date Aircraft Flight time Fuel used Landing rate On time
2015-10-13B1900D00.43556-287Yes
2017-03-11B1900D.3711120Yes
2017-11-03B1900D00.49411-112Yes
2018-04-25B1900D00.40599-332Yes
2019-02-12B1900D0.29470-208Yes
2019-07-31B1900D00.37499-75Yes
(pireps marked green are flown by you)

Route map